sensor_id;sensor_type;location;lat;lon;timestamp;P1;durP1;ratioP1;P2;durP2;ratioP2
12665;SDS011;58531;59.050;17.416;2023-02-11T00:00:54;2.77;;;1.60;;
12665;SDS011;58531;59.050;17.416;2023-02-11T00:03:21;5.47;;;1.73;;
12665;SDS011;58531;59.050;17.416;2023-02-11T00:05:56;5.67;;;1.43;;
12665;SDS011;58531;59.050;17.416;2023-02-11T00:08:24;3.13;;;1.50;;
12665;SDS011;58531;59.050;17.416;2023-02-11T00:10:51;3.43;;;1.50;;
12665;SDS011;58531;59.050;17.416;2023-02-11T00:13:19;2.20;;;1.53;;
12665;SDS011;58531;59.050;17.416;2023-02-11T00:15:46;2.93;;;1.50;;
12665;SDS011;58531;59.050;17.416;2023-02-11T00:18:12;3.57;;;1.40;;
12665;SDS011;58531;59.050;17.416;2023-02-11T00:20:39;5.70;;;1.90;;
12665;SDS011;58531;59.050;17.416;2023-02-11T00:23:08;3.07;;;1.73;;
12665;SDS011;58531;59.050;17.416;2023-02-11T00:25:37;4.03;;;1.70;;
12665;SDS011;58531;59.050;17.416;2023-02-11T00:28:04;4.13;;;2.00;;
12665;SDS011;58531;59.050;17.416;2023-02-11T00:30:31;5.77;;;1.80;;
12665;SDS011;58531;59.050;17.416;2023-02-11T00:32:58;4.53;;;1.50;;
12665;SDS011;58531;59.050;17.416;2023-02-11T00:35:25;4.97;;;1.53;;
12665;SDS011;58531;59.050;17.416;2023-02-11T00:37:52;4.27;;;1.60;;
12665;SDS011;58531;59.050;17.416;2023-02-11T00:40:21;2.93;;;1.50;;
12665;SDS011;58531;59.050;17.416;2023-02-11T00:42:48;4.37;;;1.60;;
12665;SDS011;58531;59.050;17.416;2023-02-11T00:45:15;2.10;;;1.20;;
12665;SDS011;58531;59.050;17.416;2023-02-11T00:47:42;4.27;;;1.40;;
12665;SDS011;58531;59.050;17.416;2023-02-11T00:50:09;5.80;;;1.90;;
12665;SDS011;58531;59.050;17.416;2023-02-11T00:52:35;5.07;;;1.47;;
12665;SDS011;58531;59.050;17.416;2023-02-11T00:55:02;5.13;;;1.60;;
12665;SDS011;58531;59.050;17.416;2023-02-11T00:57:31;4.80;;;1.30;;
12665;SDS011;58531;59.050;17.416;2023-02-11T00:59:58;4.17;;;1.37;;
12665;SDS011;58531;59.050;17.416;2023-02-11T01:02:24;7.87;;;1.70;;
12665;SDS011;58531;59.050;17.416;2023-02-11T01:04:51;2.80;;;1.30;;
12665;SDS011;58531;59.050;17.416;2023-02-11T01:07:18;6.17;;;1.30;;
12665;SDS011;58531;59.050;17.416;2023-02-11T01:09:45;5.27;;;1.40;;
12665;SDS011;58531;59.050;17.416;2023-02-11T01:12:12;3.17;;;1.50;;
12665;SDS011;58531;59.050;17.416;2023-02-11T01:14:40;3.23;;;1.60;;
12665;SDS011;58531;59.050;17.416;2023-02-11T01:17:07;5.47;;;1.40;;
12665;SDS011;58531;59.050;17.416;2023-02-11T01:19:35;4.40;;;1.30;;
12665;SDS011;58531;59.050;17.416;2023-02-11T01:22:02;4.63;;;1.30;;
12665;SDS011;58531;59.050;17.416;2023-02-11T01:24:29;5.67;;;1.60;;
12665;SDS011;58531;59.050;17.416;2023-02-11T01:26:56;4.43;;;1.13;;
12665;SDS011;58531;59.050;17.416;2023-02-11T01:29:23;6.27;;;1.60;;
12665;SDS011;58531;59.050;17.416;2023-02-11T01:31:51;4.23;;;1.57;;
12665;SDS011;58531;59.050;17.416;2023-02-11T01:34:18;5.03;;;1.50;;
12665;SDS011;58531;59.050;17.416;2023-02-11T01:36:45;3.23;;;1.50;;
12665;SDS011;58531;59.050;17.416;2023-02-11T01:39:12;4.47;;;1.30;;
12665;SDS011;58531;59.050;17.416;2023-02-11T01:41:38;4.73;;;1.30;;
12665;SDS011;58531;59.050;17.416;2023-02-11T01:44:22;4.10;;;1.20;;
12665;SDS011;58531;59.050;17.416;2023-02-11T01:46:52;2.57;;;1.30;;
12665;SDS011;58531;59.050;17.416;2023-02-11T01:49:20;6.10;;;1.50;;
12665;SDS011;58531;59.050;17.416;2023-02-11T01:51:51;4.77;;;1.33;;
12665;SDS011;58531;59.050;17.416;2023-02-11T01:54:24;6.23;;;1.50;;
12665;SDS011;58531;59.050;17.416;2023-02-11T01:57:12;5.50;;;1.53;;
12665;SDS011;58531;59.050;17.416;2023-02-11T01:59:51;6.57;;;1.60;;
12665;SDS011;58531;59.050;17.416;2023-02-11T02:02:28;2.87;;;1.30;;
12665;SDS011;58531;59.050;17.416;2023-02-11T02:05:01;6.73;;;1.50;;
12665;SDS011;58531;59.050;17.416;2023-02-11T02:07:35;6.73;;;1.60;;
12665;SDS011;58531;59.050;17.416;2023-02-11T02:10:08;7.90;;;1.70;;
12665;SDS011;58531;59.050;17.416;2023-02-11T02:12:39;9.07;;;2.10;;
12665;SDS011;58531;59.050;17.416;2023-02-11T02:15:19;8.50;;;2.20;;
12665;SDS011;58531;59.050;17.416;2023-02-11T02:17:57;4.57;;;1.33;;
12665;SDS011;58531;59.050;17.416;2023-02-11T02:23:39;7.27;;;1.80;;
12665;SDS011;58531;59.050;17.416;2023-02-11T02:26:32;9.80;;;1.97;;
12665;SDS011;58531;59.050;17.416;2023-02-11T02:29:34;6.50;;;1.93;;
12665;SDS011;58531;59.050;17.416;2023-02-11T02:32:30;8.43;;;1.73;;
12665;SDS011;58531;59.050;17.416;2023-02-11T02:35:08;12.53;;;1.83;;
12665;SDS011;58531;59.050;17.416;2023-02-11T02:37:43;8.83;;;2.23;;
12665;SDS011;58531;59.050;17.416;2023-02-11T02:40:18;5.07;;;1.90;;
12665;SDS011;58531;59.050;17.416;2023-02-11T02:42:48;12.37;;;2.33;;
12665;SDS011;58531;59.050;17.416;2023-02-11T02:45:16;12.07;;;3.00;;
12665;SDS011;58531;59.050;17.416;2023-02-11T02:47:46;8.10;;;1.73;;
12665;SDS011;58531;59.050;17.416;2023-02-11T02:50:12;8.03;;;2.23;;
12665;SDS011;58531;59.050;17.416;2023-02-11T02:52:45;7.33;;;2.20;;
12665;SDS011;58531;59.050;17.416;2023-02-11T02:55:23;8.93;;;1.93;;
12665;SDS011;58531;59.050;17.416;2023-02-11T03:01:21;10.10;;;2.17;;
12665;SDS011;58531;59.050;17.416;2023-02-11T03:03:58;7.77;;;1.90;;
12665;SDS011;58531;59.050;17.416;2023-02-11T03:06:32;7.17;;;2.37;;
12665;SDS011;58531;59.050;17.416;2023-02-11T03:09:07;10.90;;;1.97;;
12665;SDS011;58531;59.050;17.416;2023-02-11T03:11:40;6.50;;;1.77;;
12665;SDS011;58531;59.050;17.416;2023-02-11T03:14:08;11.20;;;2.37;;
12665;SDS011;58531;59.050;17.416;2023-02-11T03:16:38;10.73;;;2.00;;
12665;SDS011;58531;59.050;17.416;2023-02-11T03:19:07;7.03;;;2.10;;
12665;SDS011;58531;59.050;17.416;2023-02-11T03:21:38;16.00;;;2.60;;
12665;SDS011;58531;59.050;17.416;2023-02-11T03:24:09;8.10;;;1.93;;
12665;SDS011;58531;59.050;17.416;2023-02-11T03:26:42;6.90;;;1.90;;
12665;SDS011;58531;59.050;17.416;2023-02-11T03:29:14;9.43;;;2.20;;
12665;SDS011;58531;59.050;17.416;2023-02-11T03:31:50;10.77;;;2.20;;
12665;SDS011;58531;59.050;17.416;2023-02-11T03:34:25;8.00;;;2.23;;
12665;SDS011;58531;59.050;17.416;2023-02-11T03:36:58;9.47;;;2.47;;
12665;SDS011;58531;59.050;17.416;2023-02-11T03:39:32;14.50;;;2.27;;
12665;SDS011;58531;59.050;17.416;2023-02-11T03:42:02;11.90;;;2.10;;
12665;SDS011;58531;59.050;17.416;2023-02-11T03:44:33;9.53;;;2.23;;
12665;SDS011;58531;59.050;17.416;2023-02-11T03:47:03;12.07;;;2.10;;
12665;SDS011;58531;59.050;17.416;2023-02-11T03:49:34;8.23;;;1.80;;
12665;SDS011;58531;59.050;17.416;2023-02-11T03:52:04;8.90;;;2.27;;
12665;SDS011;58531;59.050;17.416;2023-02-11T03:54:35;10.23;;;1.93;;
12665;SDS011;58531;59.050;17.416;2023-02-11T03:57:04;12.60;;;2.20;;
12665;SDS011;58531;59.050;17.416;2023-02-11T03:59:31;10.60;;;1.80;;
12665;SDS011;58531;59.050;17.416;2023-02-11T04:02:14;15.03;;;2.80;;
12665;SDS011;58531;59.050;17.416;2023-02-11T04:04:42;13.60;;;2.57;;
12665;SDS011;58531;59.050;17.416;2023-02-11T04:07:10;10.63;;;2.57;;
12665;SDS011;58531;59.050;17.416;2023-02-11T04:09:37;11.80;;;2.10;;
12665;SDS011;58531;59.050;17.416;2023-02-11T04:12:04;15.07;;;2.90;;
12665;SDS011;58531;59.050;17.416;2023-02-11T04:14:31;11.40;;;2.40;;
12665;SDS011;58531;59.050;17.416;2023-02-11T04:16:58;14.97;;;2.80;;
12665;SDS011;58531;59.050;17.416;2023-02-11T04:19:25;13.77;;;2.87;;
12665;SDS011;58531;59.050;17.416;2023-02-11T04:21:53;11.40;;;2.53;;
12665;SDS011;58531;59.050;17.416;2023-02-11T04:24:20;13.20;;;2.60;;
12665;SDS011;58531;59.050;17.416;2023-02-11T04:26:47;16.93;;;2.90;;
12665;SDS011;58531;59.050;17.416;2023-02-11T04:29:14;10.03;;;2.40;;
12665;SDS011;58531;59.050;17.416;2023-02-11T04:31:40;15.07;;;2.90;;
12665;SDS011;58531;59.050;17.416;2023-02-11T04:34:07;11.00;;;2.40;;
12665;SDS011;58531;59.050;17.416;2023-02-11T04:36:34;14.33;;;2.97;;
12665;SDS011;58531;59.050;17.416;2023-02-11T04:39:02;13.17;;;2.63;;
12665;SDS011;58531;59.050;17.416;2023-02-11T04:41:30;14.07;;;2.57;;
12665;SDS011;58531;59.050;17.416;2023-02-11T04:43:57;14.07;;;2.97;;
12665;SDS011;58531;59.050;17.416;2023-02-11T04:46:24;16.47;;;3.93;;
12665;SDS011;58531;59.050;17.416;2023-02-11T04:48:50;3.33;;;0.90;;
12665;SDS011;58531;59.050;17.416;2023-02-11T04:51:17;3.80;;;0.60;;
12665;SDS011;58531;59.050;17.416;2023-02-11T04:53:44;1.40;;;0.50;;
12665;SDS011;58531;59.050;17.416;2023-02-11T04:56:12;1.47;;;0.50;;
12665;SDS011;58531;59.050;17.416;2023-02-11T04:58:39;1.60;;;0.70;;
12665;SDS011;58531;59.050;17.416;2023-02-11T05:01:06;1.53;;;0.60;;
12665;SDS011;58531;59.050;17.416;2023-02-11T05:03:33;1.47;;;0.60;;
12665;SDS011;58531;59.050;17.416;2023-02-11T05:06:01;0.40;;;0.40;;
12665;SDS011;58531;59.050;17.416;2023-02-11T05:08:28;0.97;;;0.50;;
12665;SDS011;58531;59.050;17.416;2023-02-11T05:10:55;1.03;;;0.50;;
12665;SDS011;58531;59.050;17.416;2023-02-11T05:13:23;0.67;;;0.50;;
12665;SDS011;58531;59.050;17.416;2023-02-11T05:15:50;2.67;;;0.57;;
12665;SDS011;58531;59.050;17.416;2023-02-11T05:18:17;0.50;;;0.50;;
12665;SDS011;58531;59.050;17.416;2023-02-11T05:20:43;0.90;;;0.50;;
12665;SDS011;58531;59.050;17.416;2023-02-11T05:23:10;0.60;;;0.60;;
12665;SDS011;58531;59.050;17.416;2023-02-11T05:25:37;0.40;;;0.23;;
12665;SDS011;58531;59.050;17.416;2023-02-11T05:28:04;0.50;;;0.40;;
12665;SDS011;58531;59.050;17.416;2023-02-11T05:30:33;0.33;;;0.33;;
12665;SDS011;58531;59.050;17.416;2023-02-11T05:32:59;0.93;;;0.40;;
12665;SDS011;58531;59.050;17.416;2023-02-11T05:35:26;0.60;;;0.40;;
12665;SDS011;58531;59.050;17.416;2023-02-11T05:37:53;0.93;;;0.70;;
12665;SDS011;58531;59.050;17.416;2023-02-11T05:40:20;1.73;;;0.60;;
12665;SDS011;58531;59.050;17.416;2023-02-11T05:42:47;1.73;;;0.50;;
12665;SDS011;58531;59.050;17.416;2023-02-11T05:45:13;0.73;;;0.53;;
12665;SDS011;58531;59.050;17.416;2023-02-11T05:47:42;0.77;;;0.50;;
12665;SDS011;58531;59.050;17.416;2023-02-11T05:50:09;3.80;;;0.80;;
12665;SDS011;58531;59.050;17.416;2023-02-11T05:52:35;1.57;;;0.80;;
12665;SDS011;58531;59.050;17.416;2023-02-11T05:55:02;2.07;;;0.80;;
12665;SDS011;58531;59.050;17.416;2023-02-11T05:57:29;0.90;;;0.60;;
12665;SDS011;58531;59.050;17.416;2023-02-11T05:59:56;1.20;;;0.73;;
12665;SDS011;58531;59.050;17.416;2023-02-11T06:02:23;1.90;;;0.63;;
12665;SDS011;58531;59.050;17.416;2023-02-11T06:04:51;2.27;;;0.97;;
12665;SDS011;58531;59.050;17.416;2023-02-11T06:07:18;1.33;;;0.73;;
12665;SDS011;58531;59.050;17.416;2023-02-11T06:09:45;3.03;;;1.00;;
12665;SDS011;58531;59.050;17.416;2023-02-11T06:12:11;4.00;;;1.00;;
12665;SDS011;58531;59.050;17.416;2023-02-11T06:14:38;2.60;;;0.93;;
12665;SDS011;58531;59.050;17.416;2023-02-11T06:17:05;3.30;;;0.73;;
12665;SDS011;58531;59.050;17.416;2023-02-11T06:19:32;3.37;;;1.03;;
12665;SDS011;58531;59.050;17.416;2023-02-11T06:22:00;2.73;;;1.20;;
12665;SDS011;58531;59.050;17.416;2023-02-11T06:24:27;1.23;;;1.00;;
12665;SDS011;58531;59.050;17.416;2023-02-11T06:26:54;3.83;;;1.10;;
12665;SDS011;58531;59.050;17.416;2023-02-11T06:29:21;1.60;;;0.90;;
12665;SDS011;58531;59.050;17.416;2023-02-11T06:31:47;3.13;;;0.80;;
12665;SDS011;58531;59.050;17.416;2023-02-11T06:34:14;2.93;;;0.80;;
12665;SDS011;58531;59.050;17.416;2023-02-11T06:36:41;3.50;;;1.27;;
12665;SDS011;58531;59.050;17.416;2023-02-11T06:39:09;3.23;;;1.10;;
12665;SDS011;58531;59.050;17.416;2023-02-11T06:41:37;3.27;;;1.10;;
12665;SDS011;58531;59.050;17.416;2023-02-11T06:44:04;3.93;;;0.97;;
12665;SDS011;58531;59.050;17.416;2023-02-11T06:46:31;3.00;;;1.00;;
12665;SDS011;58531;59.050;17.416;2023-02-11T06:48:58;2.53;;;0.97;;
12665;SDS011;58531;59.050;17.416;2023-02-11T06:51:25;2.70;;;0.83;;
12665;SDS011;58531;59.050;17.416;2023-02-11T06:53:52;1.43;;;0.70;;
12665;SDS011;58531;59.050;17.416;2023-02-11T06:56:21;3.83;;;1.43;;
12665;SDS011;58531;59.050;17.416;2023-02-11T06:58:51;2.90;;;0.80;;
12665;SDS011;58531;59.050;17.416;2023-02-11T07:01:19;2.07;;;1.10;;
12665;SDS011;58531;59.050;17.416;2023-02-11T07:03:46;3.73;;;1.10;;
12665;SDS011;58531;59.050;17.416;2023-02-11T07:06:14;4.13;;;1.20;;
12665;SDS011;58531;59.050;17.416;2023-02-11T07:08:43;2.93;;;1.00;;
12665;SDS011;58531;59.050;17.416;2023-02-11T07:11:11;4.07;;;1.30;;
12665;SDS011;58531;59.050;17.416;2023-02-11T07:13:41;2.70;;;1.10;;
12665;SDS011;58531;59.050;17.416;2023-02-11T07:16:15;2.80;;;1.47;;
12665;SDS011;58531;59.050;17.416;2023-02-11T07:18:56;7.73;;;2.97;;
12665;SDS011;58531;59.050;17.416;2023-02-11T07:21:23;4.33;;;1.47;;
12665;SDS011;58531;59.050;17.416;2023-02-11T07:23:50;6.40;;;3.30;;
12665;SDS011;58531;59.050;17.416;2023-02-11T07:26:18;4.80;;;2.40;;
12665;SDS011;58531;59.050;17.416;2023-02-11T07:28:48;3.87;;;1.50;;
12665;SDS011;58531;59.050;17.416;2023-02-11T07:31:16;4.50;;;2.37;;
12665;SDS011;58531;59.050;17.416;2023-02-11T07:33:45;3.73;;;1.10;;
12665;SDS011;58531;59.050;17.416;2023-02-11T07:36:12;3.37;;;1.37;;
12665;SDS011;58531;59.050;17.416;2023-02-11T07:38:40;4.50;;;1.20;;
12665;SDS011;58531;59.050;17.416;2023-02-11T07:41:08;4.00;;;2.90;;
12665;SDS011;58531;59.050;17.416;2023-02-11T07:43:37;2.87;;;1.10;;
12665;SDS011;58531;59.050;17.416;2023-02-11T07:46:08;2.47;;;1.37;;
12665;SDS011;58531;59.050;17.416;2023-02-11T07:48:36;5.97;;;1.43;;
12665;SDS011;58531;59.050;17.416;2023-02-11T07:51:04;3.50;;;1.00;;
12665;SDS011;58531;59.050;17.416;2023-02-11T07:53:31;3.20;;;1.17;;
12665;SDS011;58531;59.050;17.416;2023-02-11T07:55:58;3.90;;;1.50;;
12665;SDS011;58531;59.050;17.416;2023-02-11T07:58:25;3.53;;;1.33;;
12665;SDS011;58531;59.050;17.416;2023-02-11T08:00:52;2.97;;;1.07;;
12665;SDS011;58531;59.050;17.416;2023-02-11T08:03:21;5.83;;;1.23;;
12665;SDS011;58531;59.050;17.416;2023-02-11T08:05:47;2.60;;;0.97;;
12665;SDS011;58531;59.050;17.416;2023-02-11T08:08:14;4.10;;;1.30;;
12665;SDS011;58531;59.050;17.416;2023-02-11T08:10:41;2.50;;;1.47;;
12665;SDS011;58531;59.050;17.416;2023-02-11T08:13:08;5.47;;;1.50;;
12665;SDS011;58531;59.050;17.416;2023-02-11T08:15:35;2.53;;;1.00;;
12665;SDS011;58531;59.050;17.416;2023-02-11T08:18:01;2.20;;;1.23;;
12665;SDS011;58531;59.050;17.416;2023-02-11T08:20:30;4.67;;;1.30;;
12665;SDS011;58531;59.050;17.416;2023-02-11T08:22:56;3.17;;;0.90;;
12665;SDS011;58531;59.050;17.416;2023-02-11T08:25:23;4.97;;;1.13;;
12665;SDS011;58531;59.050;17.416;2023-02-11T08:27:50;3.57;;;0.97;;
12665;SDS011;58531;59.050;17.416;2023-02-11T08:30:17;3.17;;;1.20;;
12665;SDS011;58531;59.050;17.416;2023-02-11T08:32:44;4.10;;;1.00;;
12665;SDS011;58531;59.050;17.416;2023-02-11T08:35:11;3.53;;;1.40;;
12665;SDS011;58531;59.050;17.416;2023-02-11T08:37:39;6.07;;;1.30;;
12665;SDS011;58531;59.050;17.416;2023-02-11T08:40:06;3.30;;;1.40;;
12665;SDS011;58531;59.050;17.416;2023-02-11T08:42:34;3.23;;;1.10;;
12665;SDS011;58531;59.050;17.416;2023-02-11T08:45:00;1.90;;;1.00;;
12665;SDS011;58531;59.050;17.416;2023-02-11T08:47:29;3.33;;;1.07;;
12665;SDS011;58531;59.050;17.416;2023-02-11T08:49:56;6.60;;;1.40;;
12665;SDS011;58531;59.050;17.416;2023-02-11T08:52:23;5.50;;;1.37;;
12665;SDS011;58531;59.050;17.416;2023-02-11T08:54:51;3.03;;;0.97;;
12665;SDS011;58531;59.050;17.416;2023-02-11T08:57:18;3.93;;;1.07;;
12665;SDS011;58531;59.050;17.416;2023-02-11T08:59:45;4.47;;;1.13;;
12665;SDS011;58531;59.050;17.416;2023-02-11T09:02:12;4.23;;;1.10;;
12665;SDS011;58531;59.050;17.416;2023-02-11T09:04:39;3.87;;;1.10;;
12665;SDS011;58531;59.050;17.416;2023-02-11T09:07:06;4.40;;;1.10;;
12665;SDS011;58531;59.050;17.416;2023-02-11T09:09:33;6.17;;;1.23;;
12665;SDS011;58531;59.050;17.416;2023-02-11T09:12:02;3.30;;;1.77;;
12665;SDS011;58531;59.050;17.416;2023-02-11T09:14:29;4.43;;;1.13;;
12665;SDS011;58531;59.050;17.416;2023-02-11T09:16:56;2.80;;;1.00;;
12665;SDS011;58531;59.050;17.416;2023-02-11T09:19:24;3.03;;;1.10;;
12665;SDS011;58531;59.050;17.416;2023-02-11T09:21:51;4.77;;;1.13;;
12665;SDS011;58531;59.050;17.416;2023-02-11T09:24:18;3.37;;;0.90;;
12665;SDS011;58531;59.050;17.416;2023-02-11T09:26:44;5.00;;;1.10;;
12665;SDS011;58531;59.050;17.416;2023-02-11T09:29:13;3.83;;;1.07;;
12665;SDS011;58531;59.050;17.416;2023-02-11T09:31:39;2.90;;;0.97;;
12665;SDS011;58531;59.050;17.416;2023-02-11T09:34:06;4.40;;;1.50;;
12665;SDS011;58531;59.050;17.416;2023-02-11T09:36:34;3.03;;;1.20;;
12665;SDS011;58531;59.050;17.416;2023-02-11T09:39:03;3.83;;;1.30;;
12665;SDS011;58531;59.050;17.416;2023-02-11T09:41:34;4.73;;;0.83;;
12665;SDS011;58531;59.050;17.416;2023-02-11T09:44:07;3.70;;;1.60;;
12665;SDS011;58531;59.050;17.416;2023-02-11T09:46:44;5.47;;;1.67;;
12665;SDS011;58531;59.050;17.416;2023-02-11T09:49:17;4.57;;;1.20;;
12665;SDS011;58531;59.050;17.416;2023-02-11T09:51:48;2.57;;;1.20;;
12665;SDS011;58531;59.050;17.416;2023-02-11T09:54:21;3.90;;;1.13;;
12665;SDS011;58531;59.050;17.416;2023-02-11T09:56:52;2.83;;;0.80;;
12665;SDS011;58531;59.050;17.416;2023-02-11T09:59:18;5.83;;;1.20;;
12665;SDS011;58531;59.050;17.416;2023-02-11T10:01:48;4.30;;;1.30;;
12665;SDS011;58531;59.050;17.416;2023-02-11T10:04:21;6.93;;;2.80;;
12665;SDS011;58531;59.050;17.416;2023-02-11T10:07:06;2.70;;;0.97;;
12665;SDS011;58531;59.050;17.416;2023-02-11T10:12:33;2.43;;;1.07;;
12665;SDS011;58531;59.050;17.416;2023-02-11T10:15:14;3.27;;;1.50;;
12665;SDS011;58531;59.050;17.416;2023-02-11T10:17:53;5.70;;;1.53;;
12665;SDS011;58531;59.050;17.416;2023-02-11T10:20:33;5.93;;;2.30;;
12665;SDS011;58531;59.050;17.416;2023-02-11T10:23:07;2.80;;;1.00;;
12665;SDS011;58531;59.050;17.416;2023-02-11T10:25:39;2.67;;;1.17;;
12665;SDS011;58531;59.050;17.416;2023-02-11T10:28:10;6.63;;;2.13;;
12665;SDS011;58531;59.050;17.416;2023-02-11T10:30:41;4.60;;;1.20;;
12665;SDS011;58531;59.050;17.416;2023-02-11T10:33:14;4.37;;;1.30;;
12665;SDS011;58531;59.050;17.416;2023-02-11T10:35:48;4.00;;;1.23;;
12665;SDS011;58531;59.050;17.416;2023-02-11T10:38:15;1.70;;;0.97;;
12665;SDS011;58531;59.050;17.416;2023-02-11T10:40:42;3.07;;;1.30;;
12665;SDS011;58531;59.050;17.416;2023-02-11T10:43:10;3.90;;;1.60;;
12665;SDS011;58531;59.050;17.416;2023-02-11T10:45:41;6.23;;;1.30;;
12665;SDS011;58531;59.050;17.416;2023-02-11T10:51:18;4.30;;;1.40;;
12665;SDS011;58531;59.050;17.416;2023-02-11T10:53:48;5.20;;;1.48;;
12665;SDS011;58531;59.050;17.416;2023-02-11T10:56:20;4.47;;;1.57;;
12665;SDS011;58531;59.050;17.416;2023-02-11T10:58:54;4.47;;;1.33;;
12665;SDS011;58531;59.050;17.416;2023-02-11T11:01:38;5.27;;;1.40;;
12665;SDS011;58531;59.050;17.416;2023-02-11T11:04:31;5.27;;;1.53;;
12665;SDS011;58531;59.050;17.416;2023-02-11T11:07:09;2.60;;;1.30;;
12665;SDS011;58531;59.050;17.416;2023-02-11T11:09:42;4.73;;;1.13;;
12665;SDS011;58531;59.050;17.416;2023-02-11T11:12:22;3.00;;;1.10;;
12665;SDS011;58531;59.050;17.416;2023-02-11T11:14:52;3.30;;;1.30;;
12665;SDS011;58531;59.050;17.416;2023-02-11T11:17:20;4.30;;;1.50;;
12665;SDS011;58531;59.050;17.416;2023-02-11T11:19:49;5.37;;;1.37;;
12665;SDS011;58531;59.050;17.416;2023-02-11T11:22:19;2.97;;;1.20;;
12665;SDS011;58531;59.050;17.416;2023-02-11T11:24:47;4.10;;;1.40;;
12665;SDS011;58531;59.050;17.416;2023-02-11T11:27:19;3.60;;;1.80;;
12665;SDS011;58531;59.050;17.416;2023-02-11T11:29:49;2.77;;;1.03;;
12665;SDS011;58531;59.050;17.416;2023-02-11T11:32:19;2.33;;;1.07;;
12665;SDS011;58531;59.050;17.416;2023-02-11T11:34:51;4.33;;;1.20;;
12665;SDS011;58531;59.050;17.416;2023-02-11T11:37:21;4.40;;;0.90;;
12665;SDS011;58531;59.050;17.416;2023-02-11T11:39:53;6.70;;;1.20;;
12665;SDS011;58531;59.050;17.416;2023-02-11T11:42:25;3.50;;;0.97;;
12665;SDS011;58531;59.050;17.416;2023-02-11T11:44:55;6.13;;;1.43;;
12665;SDS011;58531;59.050;17.416;2023-02-11T11:47:25;3.73;;;1.03;;
12665;SDS011;58531;59.050;17.416;2023-02-11T11:50:13;5.30;;;1.10;;
12665;SDS011;58531;59.050;17.416;2023-02-11T11:53:03;3.20;;;1.73;;
12665;SDS011;58531;59.050;17.416;2023-02-11T11:55:34;3.90;;;1.40;;
12665;SDS011;58531;59.050;17.416;2023-02-11T11:58:04;2.37;;;0.90;;
12665;SDS011;58531;59.050;17.416;2023-02-11T12:00:40;3.60;;;0.97;;
12665;SDS011;58531;59.050;17.416;2023-02-11T12:06:36;3.07;;;1.00;;
12665;SDS011;58531;59.050;17.416;2023-02-11T12:09:14;5.57;;;1.27;;
12665;SDS011;58531;59.050;17.416;2023-02-11T12:15:06;4.17;;;1.17;;
12665;SDS011;58531;59.050;17.416;2023-02-11T12:17:51;2.87;;;1.20;;
12665;SDS011;58531;59.050;17.416;2023-02-11T12:20:28;4.57;;;1.17;;
12665;SDS011;58531;59.050;17.416;2023-02-11T12:23:10;4.80;;;1.23;;
12665;SDS011;58531;59.050;17.416;2023-02-11T12:25:51;3.83;;;1.20;;
12665;SDS011;58531;59.050;17.416;2023-02-11T12:28:25;1.83;;;1.07;;
12665;SDS011;58531;59.050;17.416;2023-02-11T12:31:02;4.90;;;1.10;;
12665;SDS011;58531;59.050;17.416;2023-02-11T12:33:51;2.00;;;1.03;;
12665;SDS011;58531;59.050;17.416;2023-02-11T12:36:37;4.27;;;1.00;;
12665;SDS011;58531;59.050;17.416;2023-02-11T12:39:22;5.53;;;1.33;;
12665;SDS011;58531;59.050;17.416;2023-02-11T12:42:08;3.50;;;1.00;;
12665;SDS011;58531;59.050;17.416;2023-02-11T12:45:11;7.23;;;1.20;;
12665;SDS011;58531;59.050;17.416;2023-02-11T12:47:51;2.27;;;0.90;;
12665;SDS011;58531;59.050;17.416;2023-02-11T12:50:29;2.90;;;1.00;;
12665;SDS011;58531;59.050;17.416;2023-02-11T12:53:16;4.50;;;1.17;;
12665;SDS011;58531;59.050;17.416;2023-02-11T12:55:57;2.03;;;1.00;;
12665;SDS011;58531;59.050;17.416;2023-02-11T12:58:30;2.33;;;1.00;;
12665;SDS011;58531;59.050;17.416;2023-02-11T13:01:02;3.10;;;0.97;;
12665;SDS011;58531;59.050;17.416;2023-02-11T13:03:34;3.50;;;1.20;;
12665;SDS011;58531;59.050;17.416;2023-02-11T13:06:07;8.17;;;1.20;;
12665;SDS011;58531;59.050;17.416;2023-02-11T13:08:37;3.83;;;1.17;;
12665;SDS011;58531;59.050;17.416;2023-02-11T13:11:13;2.93;;;1.00;;
12665;SDS011;58531;59.050;17.416;2023-02-11T13:13:48;1.97;;;0.77;;
12665;SDS011;58531;59.050;17.416;2023-02-11T13:16:24;3.43;;;1.23;;
12665;SDS011;58531;59.050;17.416;2023-02-11T13:19:00;3.47;;;1.07;;
12665;SDS011;58531;59.050;17.416;2023-02-11T13:21:45;3.10;;;0.70;;
12665;SDS011;58531;59.050;17.416;2023-02-11T13:24:24;3.80;;;1.30;;
12665;SDS011;58531;59.050;17.416;2023-02-11T13:26:59;3.43;;;0.90;;
12665;SDS011;58531;59.050;17.416;2023-02-11T13:29:37;3.00;;;1.10;;
12665;SDS011;58531;59.050;17.416;2023-02-11T13:32:22;3.07;;;1.17;;
12665;SDS011;58531;59.050;17.416;2023-02-11T13:34:52;1.90;;;1.00;;
12665;SDS011;58531;59.050;17.416;2023-02-11T13:37:22;2.70;;;1.00;;
12665;SDS011;58531;59.050;17.416;2023-02-11T13:39:58;3.07;;;0.97;;
12665;SDS011;58531;59.050;17.416;2023-02-11T13:42:28;4.83;;;1.03;;
12665;SDS011;58531;59.050;17.416;2023-02-11T13:44:56;2.63;;;1.07;;
12665;SDS011;58531;59.050;17.416;2023-02-11T13:47:24;3.63;;;1.07;;
12665;SDS011;58531;59.050;17.416;2023-02-11T13:49:55;4.13;;;1.47;;
12665;SDS011;58531;59.050;17.416;2023-02-11T13:52:23;4.37;;;1.20;;
12665;SDS011;58531;59.050;17.416;2023-02-11T13:54:53;2.33;;;1.30;;
12665;SDS011;58531;59.050;17.416;2023-02-11T13:57:33;4.63;;;1.70;;
12665;SDS011;58531;59.050;17.416;2023-02-11T14:06:12;2.97;;;1.20;;
12665;SDS011;58531;59.050;17.416;2023-02-11T14:09:00;3.53;;;1.10;;
12665;SDS011;58531;59.050;17.416;2023-02-11T14:11:47;2.73;;;1.40;;
12665;SDS011;58531;59.050;17.416;2023-02-11T14:14:17;1.37;;;0.80;;
12665;SDS011;58531;59.050;17.416;2023-02-11T14:19:57;1.77;;;0.90;;
12665;SDS011;58531;59.050;17.416;2023-02-11T14:22:26;4.73;;;1.50;;
12665;SDS011;58531;59.050;17.416;2023-02-11T14:24:56;1.37;;;0.70;;
12665;SDS011;58531;59.050;17.416;2023-02-11T14:27:29;4.33;;;1.10;;
12665;SDS011;58531;59.050;17.416;2023-02-11T14:33:13;2.57;;;0.80;;
12665;SDS011;58531;59.050;17.416;2023-02-11T14:36:06;3.90;;;1.00;;
12665;SDS011;58531;59.050;17.416;2023-02-11T14:38:47;4.33;;;0.77;;
12665;SDS011;58531;59.050;17.416;2023-02-11T14:41:25;4.50;;;1.07;;
12665;SDS011;58531;59.050;17.416;2023-02-11T14:43:54;4.83;;;1.17;;
12665;SDS011;58531;59.050;17.416;2023-02-11T14:46:25;3.23;;;1.30;;
12665;SDS011;58531;59.050;17.416;2023-02-11T14:48:55;3.80;;;1.20;;
12665;SDS011;58531;59.050;17.416;2023-02-11T14:51:24;3.77;;;1.27;;
12665;SDS011;58531;59.050;17.416;2023-02-11T14:53:56;2.40;;;0.73;;
12665;SDS011;58531;59.050;17.416;2023-02-11T14:56:27;4.77;;;0.97;;
12665;SDS011;58531;59.050;17.416;2023-02-11T14:58:58;3.03;;;1.10;;
12665;SDS011;58531;59.050;17.416;2023-02-11T15:01:30;2.60;;;1.00;;
12665;SDS011;58531;59.050;17.416;2023-02-11T15:03:59;3.10;;;0.80;;
12665;SDS011;58531;59.050;17.416;2023-02-11T15:06:28;4.80;;;1.00;;
12665;SDS011;58531;59.050;17.416;2023-02-11T15:08:58;2.80;;;1.20;;
12665;SDS011;58531;59.050;17.416;2023-02-11T15:11:28;3.80;;;1.37;;
12665;SDS011;58531;59.050;17.416;2023-02-11T15:14:00;2.10;;;1.00;;
12665;SDS011;58531;59.050;17.416;2023-02-11T15:16:38;3.23;;;1.67;;
12665;SDS011;58531;59.050;17.416;2023-02-11T15:19:10;2.33;;;1.17;;
12665;SDS011;58531;59.050;17.416;2023-02-11T15:21:46;1.77;;;1.00;;
12665;SDS011;58531;59.050;17.416;2023-02-11T15:24:21;2.90;;;1.10;;
12665;SDS011;58531;59.050;17.416;2023-02-11T15:26:57;37.93;;;16.63;;